createdAt,value
2023-06-05T00:00:45.850Z,20.60
2023-06-05T00:03:14.233Z,20.60
2023-06-05T00:05:42.560Z,20.60
2023-06-05T00:08:10.806Z,20.60
2023-06-05T00:10:39.202Z,20.60
2023-06-05T00:13:09.029Z,20.60
2023-06-05T00:15:38.512Z,20.60
2023-06-05T00:18:07.648Z,20.60
2023-06-05T00:20:36.052Z,20.60
2023-06-05T00:23:04.301Z,20.60
2023-06-05T00:25:32.650Z,20.60
2023-06-05T00:28:01.072Z,20.60
2023-06-05T00:30:30.918Z,20.60
2023-06-05T00:32:59.301Z,20.60
2023-06-05T00:35:27.562Z,20.50
2023-06-05T00:37:55.903Z,20.50
2023-06-05T00:40:24.497Z,20.50
2023-06-05T00:42:52.795Z,20.50
2023-06-05T00:45:21.148Z,20.50
2023-06-05T00:47:51.026Z,20.40
2023-06-05T00:50:22.510Z,20.40
2023-06-05T00:52:51.945Z,20.40
2023-06-05T00:55:20.484Z,20.40
2023-06-05T00:57:49.199Z,20.40
2023-06-05T01:00:18.065Z,20.40
2023-06-05T01:02:46.944Z,20.40
2023-06-05T01:05:16.749Z,20.40
2023-06-05T01:07:44.990Z,20.30
2023-06-05T01:10:13.247Z,20.30
2023-06-05T01:12:48.465Z,20.30
2023-06-05T01:15:17.321Z,20.30
2023-06-05T01:17:48.997Z,20.40
2023-06-05T01:20:21.288Z,20.30
2023-06-05T01:22:53.433Z,20.30
2023-06-05T01:25:22.512Z,20.40
2023-06-05T01:27:56.921Z,20.40
2023-06-05T01:30:32.139Z,20.40
2023-06-05T01:33:05.682Z,20.40
2023-06-05T01:35:35.877Z,20.40
2023-06-05T01:38:07.331Z,20.40
2023-06-05T01:40:36.720Z,20.40
2023-06-05T01:43:07.858Z,20.40
2023-06-05T01:45:38.711Z,20.40
2023-06-05T01:48:09.672Z,20.40
2023-06-05T01:50:38.881Z,20.40
2023-06-05T01:53:08.620Z,20.40
2023-06-05T01:55:40.315Z,20.40
2023-06-05T01:58:08.732Z,20.50
2023-06-05T02:00:37.599Z,20.50
2023-06-05T02:03:06.692Z,20.50
2023-06-05T02:05:35.108Z,20.50
2023-06-05T02:08:06.628Z,20.50
2023-06-05T02:10:36.615Z,20.50
2023-06-05T02:13:05.213Z,20.50
2023-06-05T02:15:36.079Z,20.50
2023-06-05T02:18:05.651Z,20.50
2023-06-05T02:20:35.899Z,20.50
2023-06-05T02:23:06.290Z,20.50
2023-06-05T02:25:36.128Z,20.50
2023-06-05T02:28:04.525Z,20.50
2023-06-05T02:30:34.166Z,20.50
2023-06-05T02:33:03.322Z,20.50
2023-06-05T02:35:32.525Z,20.50
2023-06-05T02:38:00.821Z,20.50
2023-06-05T02:40:29.327Z,20.50
2023-06-05T02:42:59.134Z,20.50
2023-06-05T02:45:27.421Z,20.50
2023-06-05T02:47:55.986Z,20.50
2023-06-05T02:50:24.456Z,20.50
2023-06-05T02:52:52.859Z,20.50
2023-06-05T02:55:21.451Z,20.50
2023-06-05T02:57:50.218Z,20.50
2023-06-05T03:00:20.718Z,20.50
2023-06-05T03:02:50.638Z,20.50
2023-06-05T03:05:26.281Z,20.50
2023-06-05T03:07:55.394Z,20.40
2023-06-05T03:10:23.720Z,20.40
2023-06-05T03:12:51.964Z,20.50
2023-06-05T03:15:21.669Z,20.40
2023-06-05T03:17:49.951Z,20.40
2023-06-05T03:20:20.621Z,20.50
2023-06-05T03:22:48.976Z,20.50
2023-06-05T03:25:17.418Z,20.50
2023-06-05T03:27:46.242Z,20.50
2023-06-05T03:30:17.807Z,20.40
2023-06-05T03:32:50.163Z,20.50
2023-06-05T03:35:19.625Z,20.50
2023-06-05T03:37:47.874Z,20.50
2023-06-05T03:40:16.173Z,20.50
2023-06-05T03:42:44.457Z,20.50
2023-06-05T03:45:15.028Z,20.50
2023-06-05T03:47:45.199Z,20.50
2023-06-05T03:50:15.117Z,20.50
2023-06-05T03:52:43.721Z,20.60
2023-06-05T03:55:12.308Z,20.60
2023-06-05T03:57:42.777Z,20.60
2023-06-05T04:00:11.938Z,20.60
2023-06-05T04:02:40.524Z,20.60
2023-06-05T04:05:12.863Z,20.60
2023-06-05T04:07:43.249Z,20.70
2023-06-05T04:10:12.482Z,20.70
2023-06-05T04:12:40.945Z,20.70
2023-06-05T04:15:11.668Z,20.70
2023-06-05T04:17:40.117Z,20.80
2023-06-05T04:20:14.998Z,20.80
2023-06-05T04:22:45.243Z,20.80
2023-06-05T04:25:13.940Z,20.80
2023-06-05T04:27:43.854Z,20.80
2023-06-05T04:30:13.787Z,20.80
2023-06-05T04:32:42.999Z,20.90
2023-06-05T04:35:11.905Z,20.90
2023-06-05T04:37:41.412Z,20.90
2023-06-05T04:40:11.479Z,20.90
2023-06-05T04:42:39.848Z,20.90
2023-06-05T04:45:10.053Z,21.00
2023-06-05T04:47:39.022Z,21.00
2023-06-05T04:50:08.687Z,21.00
2023-06-05T04:52:41.219Z,21.00
2023-06-05T04:55:12.131Z,21.00
2023-06-05T04:57:41.822Z,21.00
2023-06-05T05:00:12.246Z,21.10
2023-06-05T05:02:40.660Z,21.10
2023-06-05T05:05:09.857Z,21.10
2023-06-05T05:07:38.150Z,21.10
2023-06-05T05:10:07.593Z,21.10
2023-06-05T05:12:37.725Z,21.10
2023-06-05T05:15:07.398Z,21.20
2023-06-05T05:17:36.107Z,21.20
2023-06-05T05:20:05.241Z,21.20
2023-06-05T05:22:33.625Z,21.20
2023-06-05T05:25:01.943Z,21.20
2023-06-05T05:27:30.170Z,21.30
2023-06-05T05:29:59.959Z,21.40
2023-06-05T05:32:28.341Z,21.40
2023-06-05T05:34:56.749Z,21.40
2023-06-05T05:37:27.010Z,21.50
2023-06-05T05:39:55.342Z,21.60
2023-06-05T05:42:23.741Z,21.60
2023-06-05T05:44:52.086Z,21.70
2023-06-05T05:47:22.130Z,21.70
2023-06-05T05:49:50.593Z,21.80
2023-06-05T05:52:21.587Z,21.80
2023-06-05T05:54:49.970Z,21.90
2023-06-05T05:57:18.231Z,22.00
2023-06-05T05:59:46.648Z,22.00
2023-06-05T06:02:14.916Z,22.10
2023-06-05T06:04:47.256Z,22.20
2023-06-05T06:07:15.737Z,22.20
2023-06-05T06:09:45.460Z,22.30
2023-06-05T06:12:14.621Z,22.40
2023-06-05T06:14:42.879Z,22.40
2023-06-05T06:17:12.402Z,22.50
2023-06-05T06:19:41.723Z,22.60
2023-06-05T06:22:13.552Z,22.70
2023-06-05T06:24:43.212Z,22.70
2023-06-05T06:27:33.240Z,22.80
2023-06-05T06:29:59.957Z,22.80
2023-06-05T06:32:28.288Z,22.90
2023-06-05T06:34:57.251Z,22.90
2023-06-05T06:37:27.576Z,22.90
2023-06-05T06:39:56.059Z,23.00
2023-06-05T06:42:24.351Z,23.10
2023-06-05T06:44:57.196Z,23.10
2023-06-05T06:47:26.793Z,23.20
2023-06-05T06:49:55.893Z,23.30
2023-06-05T06:52:27.085Z,23.40
2023-06-05T06:54:57.424Z,23.40
2023-06-05T06:57:25.688Z,23.50
2023-06-05T06:59:54.689Z,23.60
2023-06-05T07:02:26.421Z,23.70
2023-06-05T07:04:56.201Z,23.80
2023-06-05T07:07:25.215Z,23.90
2023-06-05T07:09:53.735Z,24.00
2023-06-05T07:12:24.055Z,24.10
2023-06-05T07:14:52.947Z,24.20
2023-06-05T07:17:21.341Z,24.20
2023-06-05T07:19:49.738Z,24.30
2023-06-05T07:22:18.098Z,24.40
2023-06-05T07:24:46.619Z,24.50
2023-06-05T07:27:14.836Z,24.50
2023-06-05T07:29:44.687Z,24.60
2023-06-05T07:32:13.084Z,24.70
2023-06-05T07:34:42.102Z,24.80
2023-06-05T07:37:10.939Z,24.80
2023-06-05T07:39:39.178Z,24.90
2023-06-05T07:42:08.584Z,25.00
2023-06-05T07:44:36.868Z,25.00
2023-06-05T07:47:06.749Z,25.00
2023-06-05T07:49:35.121Z,25.10
2023-06-05T07:52:03.408Z,25.10
2023-06-05T07:54:31.813Z,25.20
2023-06-05T07:57:00.444Z,25.20
2023-06-05T07:59:29.445Z,25.30
2023-06-05T08:01:58.172Z,25.40
2023-06-05T08:04:28.939Z,25.40
2023-06-05T08:06:57.447Z,25.50
2023-06-05T08:09:25.771Z,25.50
2023-06-05T08:11:54.329Z,25.50
2023-06-05T08:14:22.675Z,25.50
2023-06-05T08:16:51.050Z,25.60
2023-06-05T08:19:19.578Z,25.60
2023-06-05T08:21:49.185Z,25.60
2023-06-05T08:24:17.454Z,25.60
2023-06-05T08:26:46.012Z,25.70
2023-06-05T08:29:14.409Z,25.60
2023-06-05T08:31:42.821Z,25.60
2023-06-05T08:34:11.672Z,25.70
2023-06-05T08:36:40.129Z,25.70
2023-06-05T08:39:10.700Z,25.70
2023-06-05T08:41:39.337Z,25.80
2023-06-05T08:44:07.809Z,25.80
2023-06-05T08:46:42.682Z,25.80
2023-06-05T08:49:13.856Z,25.90
2023-06-05T08:51:43.907Z,25.90
2023-06-05T08:54:16.836Z,26.00
2023-06-05T08:56:45.682Z,26.00
2023-06-05T08:59:16.689Z,26.10
2023-06-05T09:01:45.975Z,26.10
2023-06-05T09:04:14.372Z,26.10
2023-06-05T09:06:46.969Z,26.20
2023-06-05T09:09:17.478Z,26.20
2023-06-05T09:11:46.111Z,26.20
2023-06-05T09:14:14.378Z,26.20
2023-06-05T09:16:45.371Z,26.30
2023-06-05T09:19:14.545Z,26.30
2023-06-05T09:21:44.104Z,26.40
2023-06-05T09:24:18.265Z,26.40
2023-06-05T09:26:52.591Z,26.50
2023-06-05T09:29:25.439Z,26.40
2023-06-05T09:31:54.882Z,26.50
2023-06-05T09:34:24.323Z,26.50
2023-06-05T09:36:52.942Z,26.60
2023-06-05T09:39:22.835Z,26.50
2023-06-05T09:41:52.647Z,26.60
2023-06-05T09:44:22.211Z,26.60
2023-06-05T09:46:59.392Z,26.70
2023-06-05T09:49:29.965Z,26.70
2023-06-05T09:51:59.822Z,26.80
2023-06-05T09:54:30.511Z,26.80
2023-06-05T09:57:00.739Z,26.90
2023-06-05T09:59:32.566Z,27.00
2023-06-05T10:02:06.080Z,27.00
2023-06-05T10:04:43.233Z,27.10
2023-06-05T10:07:12.102Z,27.20
2023-06-05T10:09:42.886Z,27.30
2023-06-05T10:12:11.768Z,27.40
2023-06-05T10:14:44.871Z,27.40
2023-06-05T10:17:14.573Z,27.50
2023-06-05T10:19:44.796Z,27.60
2023-06-05T10:22:13.435Z,27.60
2023-06-05T10:24:47.576Z,27.70
2023-06-05T10:27:41.212Z,27.70
2023-06-05T10:30:32.336Z,27.70
2023-06-05T10:33:12.156Z,27.70
2023-06-05T10:35:52.206Z,27.60
2023-06-05T10:38:22.734Z,27.70
2023-06-05T10:40:55.953Z,27.70
2023-06-05T10:43:32.158Z,27.80
2023-06-05T10:49:15.391Z,27.90
2023-06-05T10:51:44.785Z,28.00
2023-06-05T10:54:16.743Z,28.00
2023-06-05T10:57:01.583Z,28.10
2023-06-05T10:59:31.942Z,28.10
2023-06-05T11:02:26.217Z,28.10
2023-06-05T11:05:13.976Z,28.10
2023-06-05T11:07:43.934Z,28.10
2023-06-05T11:10:22.866Z,28.20
2023-06-05T11:13:05.125Z,28.20
2023-06-05T11:15:39.206Z,28.20
2023-06-05T11:18:29.373Z,28.30
2023-06-05T11:20:58.988Z,28.40
2023-06-05T11:23:28.831Z,28.40
2023-06-05T11:26:02.022Z,28.40
2023-06-05T11:28:42.440Z,28.50
2023-06-05T11:31:11.234Z,28.50
2023-06-05T11:33:39.690Z,28.50
2023-06-05T11:36:10.212Z,28.60
2023-06-05T11:38:38.734Z,28.60
2023-06-05T11:41:11.031Z,28.60
2023-06-05T11:43:48.523Z,28.70
2023-06-05T11:46:16.853Z,28.70
2023-06-05T11:48:47.273Z,28.70
2023-06-05T11:51:16.229Z,28.80
2023-06-05T11:53:51.209Z,28.90
2023-06-05T11:56:19.656Z,29.00
2023-06-05T11:58:51.525Z,29.00
2023-06-05T12:01:23.115Z,29.10
2023-06-05T12:04:04.743Z,29.10
2023-06-05T12:06:34.130Z,29.10
2023-06-05T12:09:11.813Z,29.10
2023-06-05T12:11:40.591Z,29.00
2023-06-05T12:14:12.354Z,29.00
2023-06-05T12:16:44.043Z,29.10
2023-06-05T12:19:18.290Z,29.10
2023-06-05T12:21:47.974Z,29.30
2023-06-05T12:24:17.228Z,29.30
2023-06-05T12:26:55.083Z,29.40
2023-06-05T12:29:26.528Z,29.50
2023-06-05T12:31:55.454Z,29.50
2023-06-05T12:34:58.235Z,29.50
2023-06-05T12:37:31.027Z,29.50
2023-06-05T12:40:00.847Z,29.60
2023-06-05T12:42:29.511Z,29.60
2023-06-05T12:44:59.320Z,29.70
2023-06-05T12:47:27.727Z,29.80
2023-06-05T12:49:56.631Z,29.90
2023-06-05T12:52:27.141Z,30.00
2023-06-05T12:54:55.952Z,30.10
2023-06-05T12:57:24.427Z,30.10
2023-06-05T12:59:55.705Z,30.20
2023-06-05T13:02:26.231Z,30.20
2023-06-05T13:04:54.689Z,30.20
2023-06-05T13:07:23.587Z,30.10
2023-06-05T13:09:53.319Z,30.10
2023-06-05T13:12:22.013Z,30.10
2023-06-05T13:14:50.404Z,30.10
2023-06-05T13:17:18.742Z,30.20
2023-06-05T13:19:48.466Z,30.20
2023-06-05T13:22:19.402Z,30.40
2023-06-05T13:24:50.320Z,30.50
2023-06-05T13:27:19.903Z,30.50
2023-06-05T13:29:48.449Z,30.40
2023-06-05T13:32:16.973Z,30.40
2023-06-05T13:34:45.316Z,30.40
2023-06-05T13:37:15.339Z,30.40
2023-06-05T13:39:43.955Z,30.30
2023-06-05T13:42:12.992Z,30.30
2023-06-05T13:44:41.600Z,30.30
2023-06-05T13:47:10.991Z,30.30
2023-06-05T13:49:39.414Z,30.30
2023-06-05T13:52:08.633Z,30.30
2023-06-05T13:54:38.241Z,30.30
2023-06-05T13:57:06.850Z,30.20
2023-06-05T13:59:35.037Z,30.10
2023-06-05T14:02:03.765Z,30.10
2023-06-05T14:04:32.171Z,30.10
2023-06-05T14:07:00.705Z,30.20
2023-06-05T14:09:29.882Z,30.20
2023-06-05T14:11:59.972Z,30.20
2023-06-05T14:14:28.466Z,30.20
2023-06-05T14:16:56.673Z,30.20
2023-06-05T14:19:25.076Z,30.10
2023-06-05T14:21:53.409Z,30.10
2023-06-05T14:24:22.303Z,30.10
2023-06-05T14:26:50.920Z,30.10
2023-06-05T14:29:20.572Z,30.10
2023-06-05T14:31:49.227Z,30.10
2023-06-05T14:34:17.873Z,30.00
2023-06-05T14:36:51.494Z,29.90
2023-06-05T14:39:21.597Z,30.00
2023-06-05T14:41:50.392Z,30.00
2023-06-05T14:44:23.293Z,30.00
2023-06-05T14:46:55.622Z,29.90
2023-06-05T14:49:24.104Z,29.80
2023-06-05T14:51:52.455Z,29.80
2023-06-05T14:54:20.724Z,29.80
2023-06-05T14:56:51.071Z,29.80
2023-06-05T15:01:52.199Z,29.80
2023-06-05T15:04:20.752Z,29.70
2023-06-05T15:06:52.392Z,29.60
2023-06-05T15:09:21.098Z,29.60
2023-06-05T15:11:49.481Z,29.60
2023-06-05T15:14:18.348Z,29.50
2023-06-05T15:16:48.112Z,29.50
2023-06-05T15:19:17.098Z,29.50
2023-06-05T15:21:45.863Z,29.50
2023-06-05T15:24:14.269Z,29.40
2023-06-05T15:26:42.757Z,29.40
2023-06-05T15:29:11.151Z,29.20
2023-06-05T15:31:39.483Z,29.20
2023-06-05T15:34:09.173Z,29.20
2023-06-05T15:36:38.168Z,29.10
2023-06-05T15:39:06.579Z,29.10
2023-06-05T15:41:35.055Z,29.10
2023-06-05T15:44:03.897Z,29.00
2023-06-05T15:46:32.402Z,29.10
2023-06-05T15:49:00.791Z,29.10
2023-06-05T15:51:30.605Z,29.10
2023-06-05T15:54:14.883Z,29.10
2023-06-05T15:57:05.061Z,29.10
2023-06-05T15:59:33.351Z,29.00
2023-06-05T16:02:01.816Z,28.90
2023-06-05T16:04:30.327Z,28.90
2023-06-05T16:07:00.421Z,28.80
2023-06-05T16:09:28.777Z,28.80
2023-06-05T16:11:57.543Z,28.70
2023-06-05T16:14:26.602Z,28.60
2023-06-05T16:16:55.199Z,28.70
2023-06-05T16:19:23.529Z,28.60
2023-06-05T16:21:52.631Z,28.60
2023-06-05T16:24:22.634Z,28.50
2023-06-05T16:26:51.482Z,28.50
2023-06-05T16:29:19.725Z,28.40
2023-06-05T16:31:49.062Z,28.40
2023-06-05T16:34:17.591Z,28.30
2023-06-05T16:36:46.398Z,28.30
2023-06-05T16:39:16.872Z,28.30
2023-06-05T16:41:47.200Z,28.20
2023-06-05T16:44:15.637Z,28.20
2023-06-05T16:46:46.882Z,28.10
2023-06-05T16:49:16.484Z,28.10
2023-06-05T16:51:44.758Z,28.10
2023-06-05T16:54:14.583Z,27.90
2023-06-05T16:56:43.163Z,27.90
2023-06-05T16:59:17.815Z,27.80
2023-06-05T17:01:46.352Z,27.80
2023-06-05T17:04:15.062Z,27.70
2023-06-05T17:06:45.467Z,27.60
2023-06-05T17:09:14.477Z,27.50
2023-06-05T17:11:43.125Z,27.40
2023-06-05T17:14:11.503Z,27.30
2023-06-05T17:16:41.917Z,27.20
2023-06-05T17:19:10.330Z,27.10
2023-06-05T17:21:38.768Z,27.00
2023-06-05T17:24:07.472Z,27.00
2023-06-05T17:26:36.236Z,26.90
2023-06-05T17:29:04.611Z,26.80
2023-06-05T17:31:34.039Z,26.80
2023-06-05T17:34:03.939Z,26.70
2023-06-05T17:36:32.147Z,26.70
2023-06-05T17:39:00.641Z,26.60
2023-06-05T17:41:29.160Z,26.50
2023-06-05T17:43:57.530Z,26.40
2023-06-05T17:46:26.524Z,26.40
2023-06-05T17:48:55.387Z,26.20
2023-06-05T17:51:25.265Z,26.20
2023-06-05T17:53:53.758Z,26.20
2023-06-05T17:56:23.421Z,26.10
2023-06-05T17:58:51.949Z,26.00
2023-06-05T18:01:20.655Z,25.90
2023-06-05T18:03:49.665Z,25.90
2023-06-05T18:06:18.402Z,25.80
2023-06-05T18:08:48.058Z,25.80
2023-06-05T18:11:17.154Z,25.70
2023-06-05T18:13:45.547Z,25.60
2023-06-05T18:16:13.842Z,25.60
2023-06-05T18:18:42.110Z,25.50
2023-06-05T18:21:12.843Z,25.50
2023-06-05T18:23:41.989Z,25.40
2023-06-05T18:26:19.111Z,25.40
2023-06-05T18:28:47.636Z,25.30
2023-06-05T18:31:17.047Z,25.20
2023-06-05T18:33:45.517Z,25.20
2023-06-05T18:36:13.938Z,25.10
2023-06-05T18:38:42.460Z,25.10
2023-06-05T18:41:12.519Z,25.00
2023-06-05T18:43:41.029Z,25.00
2023-06-05T18:46:09.434Z,24.90
2023-06-05T18:48:37.788Z,24.90
2023-06-05T18:51:06.469Z,24.80
2023-06-05T18:53:35.135Z,24.70
2023-06-05T18:56:04.039Z,24.70
2023-06-05T18:58:33.909Z,24.60
2023-06-05T19:01:02.678Z,24.60
2023-06-05T19:03:31.181Z,24.60
2023-06-05T19:05:59.847Z,24.60
2023-06-05T19:08:28.159Z,24.50
2023-06-05T19:10:56.535Z,24.50
2023-06-05T19:13:25.029Z,24.50
2023-06-05T19:15:55.018Z,24.40
2023-06-05T19:18:23.388Z,24.40
2023-06-05T19:20:51.825Z,24.30
2023-06-05T19:23:20.145Z,24.30
2023-06-05T19:25:49.483Z,24.30
2023-06-05T19:28:17.754Z,24.20
2023-06-05T19:30:46.173Z,24.20
2023-06-05T19:33:16.297Z,24.20
2023-06-05T19:35:44.888Z,24.10
2023-06-05T19:38:13.364Z,24.10
2023-06-05T19:40:41.781Z,24.10
2023-06-05T19:43:10.109Z,24.00
2023-06-05T19:45:38.438Z,24.00
2023-06-05T19:48:06.849Z,24.00
2023-06-05T19:50:37.560Z,23.90
2023-06-05T19:53:06.193Z,23.90
2023-06-05T19:55:34.422Z,23.90
2023-06-05T19:58:03.030Z,23.80
2023-06-05T20:00:31.375Z,23.80
2023-06-05T20:02:59.771Z,23.70
2023-06-05T20:05:28.152Z,23.70
2023-06-05T20:07:57.934Z,23.70
2023-06-05T20:10:26.244Z,23.60
2023-06-05T20:12:54.725Z,23.60
2023-06-05T20:15:23.173Z,23.60
2023-06-05T20:17:51.414Z,23.50
2023-06-05T20:20:19.968Z,23.50
2023-06-05T20:22:48.414Z,23.40
2023-06-05T20:25:20.223Z,23.40
2023-06-05T20:27:50.728Z,23.30
2023-06-05T20:30:20.501Z,23.30
2023-06-05T20:32:49.020Z,23.30
2023-06-05T20:35:21.299Z,23.30
2023-06-05T20:37:49.987Z,23.20
2023-06-05T20:40:21.634Z,23.20
2023-06-05T20:42:50.879Z,23.20
2023-06-05T20:45:19.238Z,23.10
2023-06-05T20:47:47.694Z,23.10
2023-06-05T20:50:21.864Z,23.10
2023-06-05T20:52:50.820Z,23.10
2023-06-05T20:55:20.586Z,23.00
2023-06-05T20:57:50.028Z,22.90
2023-06-05T21:00:19.421Z,22.90
2023-06-05T21:02:47.852Z,22.90
2023-06-05T21:05:16.660Z,22.90
2023-06-05T21:07:44.998Z,22.90
2023-06-05T21:10:13.554Z,22.80
2023-06-05T21:12:45.494Z,22.80
2023-06-05T21:15:13.972Z,22.70
2023-06-05T21:17:43.018Z,22.70
2023-06-05T21:20:12.537Z,22.70
2023-06-05T21:22:40.737Z,22.70
2023-06-05T21:25:09.622Z,22.60
2023-06-05T21:27:38.537Z,22.60
2023-06-05T21:30:10.016Z,22.60
2023-06-05T21:32:38.430Z,22.50
2023-06-05T21:35:07.493Z,22.50
2023-06-05T21:37:35.785Z,22.40
2023-06-05T21:40:04.216Z,22.40
2023-06-05T21:42:32.562Z,22.40
2023-06-05T21:45:00.930Z,22.30
2023-06-05T21:47:30.690Z,22.30
2023-06-05T21:49:59.106Z,22.30
2023-06-05T21:52:27.355Z,22.20
2023-06-05T21:54:57.615Z,22.20
2023-06-05T21:57:25.846Z,22.20
2023-06-05T21:59:54.271Z,22.10
2023-06-05T22:02:22.566Z,22.10
2023-06-05T22:04:53.414Z,22.00
2023-06-05T22:07:21.773Z,22.00
2023-06-05T22:09:49.973Z,22.00
2023-06-05T22:12:22.209Z,22.00
2023-06-05T22:14:52.755Z,21.90
2023-06-05T22:17:26.290Z,21.90
2023-06-05T22:19:56.358Z,21.90
2023-06-05T22:22:24.966Z,21.90
2023-06-05T22:24:56.147Z,21.80
2023-06-05T22:27:26.442Z,21.80
2023-06-05T22:29:55.458Z,21.80
2023-06-05T22:32:25.643Z,21.70
2023-06-05T22:34:55.554Z,21.70
2023-06-05T22:37:26.271Z,21.60
2023-06-05T22:39:54.761Z,21.60
2023-06-05T22:42:23.266Z,21.60
2023-06-05T22:44:51.498Z,21.60
2023-06-05T22:47:20.092Z,21.60
2023-06-05T22:49:54.652Z,21.50
2023-06-05T22:52:25.825Z,21.50
2023-06-05T22:54:55.013Z,21.50
2023-06-05T22:57:23.334Z,21.50
2023-06-05T22:59:51.506Z,21.40
2023-06-05T23:02:19.966Z,21.40
2023-06-05T23:04:50.241Z,21.40
2023-06-05T23:07:19.250Z,21.40
2023-06-05T23:09:49.011Z,21.40
2023-06-05T23:12:17.206Z,21.40
2023-06-05T23:14:45.412Z,21.40
2023-06-05T23:17:13.673Z,21.40
2023-06-05T23:19:41.827Z,21.30
2023-06-05T23:22:10.143Z,21.30
2023-06-05T23:24:38.505Z,21.30
2023-06-05T23:27:10.438Z,21.30
2023-06-05T23:29:38.581Z,21.20
2023-06-05T23:32:07.671Z,21.20
2023-06-05T23:34:36.321Z,21.10
2023-06-05T23:37:04.625Z,21.10
2023-06-05T23:39:32.802Z,21.10
2023-06-05T23:42:02.284Z,21.10
2023-06-05T23:44:31.968Z,21.10
2023-06-05T23:47:00.176Z,21.00
2023-06-05T23:49:28.537Z,21.00
2023-06-05T23:51:56.844Z,21.00
2023-06-05T23:54:26.381Z,21.00
2023-06-05T23:56:54.578Z,20.90
2023-06-05T23:59:22.847Z,20.90
